<?xml version="1.0" encoding="UTF-8" standalone="no" ?>
<gpx xmlns="http://www.topografix.com/GPX/1/1" xmlns:xsi="http://www.w3.org/2001/XMLSchema-instance" xsi:schemaLocation="http://www.topografix.com/GPX/1/1 http://www.topografix.com/GPX/1/1/gpx.xsd" version="1.1" creator="VisuGPX - https://www.visugpx.com">
  <metadata>
    <name>Course à pied le midi</name>
  </metadata>
  <trk>
    <name><![CDATA[Course à pied le midi_1]]></name>
    <trkseg>
      <trkpt lat="48.61189" lon="7.8006">
        <ele>138</ele>
        <time>2023-10-17T09:04:07Z</time>
      </trkpt>
      <trkpt lat="48.61187" lon="7.80061">
        <ele>138.1</ele>
        <time>2023-10-17T09:04:08Z</time>
      </trkpt>
      <trkpt lat="48.61183" lon="7.80061">
        <ele>138.1</ele>
        <time>2023-10-17T09:04:11Z</time>
      </trkpt>
      <trkpt lat="48.61162" lon="7.8007">
        <ele>138.1</ele>
        <time>2023-10-17T09:04:23Z</time>
      </trkpt>
      <trkpt lat="48.61144" lon="7.80079">
        <ele>138.1</ele>
        <time>2023-10-17T09:04:29Z</time>
      </trkpt>
      <trkpt lat="48.61125" lon="7.80079">
        <ele>138.1</ele>
        <time>2023-10-17T09:04:35Z</time>
      </trkpt>
      <trkpt lat="48.61107" lon="7.80079">
        <ele>137.9</ele>
        <time>2023-10-17T09:04:41Z</time>
      </trkpt>
      <trkpt lat="48.61094" lon="7.80072">
        <ele>137.9</ele>
        <time>2023-10-17T09:04:45Z</time>
      </trkpt>
      <trkpt lat="48.61073" lon="7.80069">
        <ele>137.8</ele>
        <time>2023-10-17T09:05:25Z</time>
      </trkpt>
      <trkpt lat="48.61069" lon="7.80076">
        <ele>137.8</ele>
        <time>2023-10-17T09:05:28Z</time>
      </trkpt>
      <trkpt lat="48.6105" lon="7.80072">
        <ele>137.8</ele>
        <time>2023-10-17T09:05:36Z</time>
      </trkpt>
      <trkpt lat="48.61033" lon="7.80062">
        <ele>137.7</ele>
        <time>2023-10-17T09:05:42Z</time>
      </trkpt>
      <trkpt lat="48.61015" lon="7.80052">
        <ele>137.7</ele>
        <time>2023-10-17T09:05:49Z</time>
      </trkpt>
      <trkpt lat="48.60998" lon="7.80038">
        <ele>137.6</ele>
        <time>2023-10-17T09:05:57Z</time>
      </trkpt>
      <trkpt lat="48.60981" lon="7.80018">
        <ele>137.5</ele>
        <time>2023-10-17T09:06:04Z</time>
      </trkpt>
      <trkpt lat="48.60964" lon="7.80003">
        <ele>137.5</ele>
        <time>2023-10-17T09:06:09Z</time>
      </trkpt>
      <trkpt lat="48.60948" lon="7.7999">
        <ele>137.4</ele>
        <time>2023-10-17T09:06:14Z</time>
      </trkpt>
      <trkpt lat="48.60931" lon="7.7998">
        <ele>137.5</ele>
        <time>2023-10-17T09:06:19Z</time>
      </trkpt>
      <trkpt lat="48.60912" lon="7.7997">
        <ele>137.5</ele>
        <time>2023-10-17T09:06:25Z</time>
      </trkpt>
      <trkpt lat="48.60901" lon="7.7999">
        <ele>137.1</ele>
        <time>2023-10-17T09:06:30Z</time>
      </trkpt>
      <trkpt lat="48.6089" lon="7.80016">
        <ele>136.9</ele>
        <time>2023-10-17T09:06:36Z</time>
      </trkpt>
      <trkpt lat="48.60879" lon="7.80042">
        <ele>136.9</ele>
        <time>2023-10-17T09:06:42Z</time>
      </trkpt>
      <trkpt lat="48.6087" lon="7.80068">
        <ele>137</ele>
        <time>2023-10-17T09:06:48Z</time>
      </trkpt>
      <trkpt lat="48.6086" lon="7.80093">
        <ele>137</ele>
        <time>2023-10-17T09:06:54Z</time>
      </trkpt>
      <trkpt lat="48.60851" lon="7.80118">
        <ele>137</ele>
        <time>2023-10-17T09:07:00Z</time>
      </trkpt>
      <trkpt lat="48.60849" lon="7.80149">
        <ele>137</ele>
        <time>2023-10-17T09:07:08Z</time>
      </trkpt>
      <trkpt lat="48.60849" lon="7.80176">
        <ele>137.2</ele>
        <time>2023-10-17T09:07:16Z</time>
      </trkpt>
      <trkpt lat="48.60855" lon="7.8018">
        <ele>137.3</ele>
        <time>2023-10-17T09:07:18Z</time>
      </trkpt>
      <trkpt lat="48.60872" lon="7.80191">
        <ele>137.7</ele>
        <time>2023-10-17T09:07:23Z</time>
      </trkpt>
      <trkpt lat="48.60871" lon="7.80221">
        <ele>137.7</ele>
        <time>2023-10-17T09:07:29Z</time>
      </trkpt>
      <trkpt lat="48.6086" lon="7.80246">
        <ele>137.7</ele>
        <time>2023-10-17T09:07:35Z</time>
      </trkpt>
      <trkpt lat="48.60845" lon="7.80253">
        <ele>137.7</ele>
        <time>2023-10-17T09:07:50Z</time>
      </trkpt>
      <trkpt lat="48.60827" lon="7.8025">
        <ele>137.8</ele>
        <time>2023-10-17T09:07:57Z</time>
      </trkpt>
      <trkpt lat="48.60811" lon="7.80231">
        <ele>137.8</ele>
        <time>2023-10-17T09:08:03Z</time>
      </trkpt>
      <trkpt lat="48.60797" lon="7.80208">
        <ele>137.9</ele>
        <time>2023-10-17T09:08:09Z</time>
      </trkpt>
      <trkpt lat="48.60787" lon="7.80183">
        <ele>138</ele>
        <time>2023-10-17T09:08:15Z</time>
      </trkpt>
      <trkpt lat="48.60776" lon="7.80156">
        <ele>138.2</ele>
        <time>2023-10-17T09:08:21Z</time>
      </trkpt>
      <trkpt lat="48.60765" lon="7.80134">
        <ele>138.4</ele>
        <time>2023-10-17T09:08:26Z</time>
      </trkpt>
      <trkpt lat="48.60752" lon="7.80115">
        <ele>138.4</ele>
        <time>2023-10-17T09:08:32Z</time>
      </trkpt>
      <trkpt lat="48.60736" lon="7.80098">
        <ele>138.3</ele>
        <time>2023-10-17T09:08:40Z</time>
      </trkpt>
      <trkpt lat="48.60718" lon="7.80082">
        <ele>138.2</ele>
        <time>2023-10-17T09:08:47Z</time>
      </trkpt>
      <trkpt lat="48.607" lon="7.80071">
        <ele>138.2</ele>
        <time>2023-10-17T09:08:53Z</time>
      </trkpt>
      <trkpt lat="48.60683" lon="7.80059">
        <ele>138.2</ele>
        <time>2023-10-17T09:08:59Z</time>
      </trkpt>
      <trkpt lat="48.60666" lon="7.80051">
        <ele>138.1</ele>
        <time>2023-10-17T09:09:04Z</time>
      </trkpt>
      <trkpt lat="48.60647" lon="7.8004">
        <ele>138.1</ele>
        <time>2023-10-17T09:09:10Z</time>
      </trkpt>
      <trkpt lat="48.60637" lon="7.80039">
        <ele>138.1</ele>
        <time>2023-10-17T09:09:15Z</time>
      </trkpt>
      <trkpt lat="48.60624" lon="7.80062">
        <ele>138</ele>
        <time>2023-10-17T09:09:21Z</time>
      </trkpt>
      <trkpt lat="48.60611" lon="7.80086">
        <ele>138</ele>
        <time>2023-10-17T09:09:26Z</time>
      </trkpt>
      <trkpt lat="48.60601" lon="7.80113">
        <ele>138.1</ele>
        <time>2023-10-17T09:09:32Z</time>
      </trkpt>
      <trkpt lat="48.60593" lon="7.80138">
        <ele>138.2</ele>
        <time>2023-10-17T09:09:38Z</time>
      </trkpt>
      <trkpt lat="48.60589" lon="7.80168">
        <ele>138.3</ele>
        <time>2023-10-17T09:09:45Z</time>
      </trkpt>
      <trkpt lat="48.60586" lon="7.80197">
        <ele>138.5</ele>
        <time>2023-10-17T09:09:52Z</time>
      </trkpt>
      <trkpt lat="48.60585" lon="7.80226">
        <ele>139</ele>
        <time>2023-10-17T09:09:59Z</time>
      </trkpt>
      <trkpt lat="48.6059" lon="7.80254">
        <ele>139.2</ele>
        <time>2023-10-17T09:10:05Z</time>
      </trkpt>
      <trkpt lat="48.60602" lon="7.80278">
        <ele>139.4</ele>
        <time>2023-10-17T09:10:11Z</time>
      </trkpt>
      <trkpt lat="48.60612" lon="7.80303">
        <ele>139.5</ele>
        <time>2023-10-17T09:10:17Z</time>
      </trkpt>
      <trkpt lat="48.6062" lon="7.8033">
        <ele>139.6</ele>
        <time>2023-10-17T09:10:23Z</time>
      </trkpt>
      <trkpt lat="48.60628" lon="7.80359">
        <ele>139.6</ele>
        <time>2023-10-17T09:10:30Z</time>
      </trkpt>
      <trkpt lat="48.60635" lon="7.80388">
        <ele>139.7</ele>
        <time>2023-10-17T09:10:37Z</time>
      </trkpt>
      <trkpt lat="48.60643" lon="7.80416">
        <ele>139.7</ele>
        <time>2023-10-17T09:10:44Z</time>
      </trkpt>
      <trkpt lat="48.60649" lon="7.80441">
        <ele>139.7</ele>
        <time>2023-10-17T09:10:51Z</time>
      </trkpt>
      <trkpt lat="48.60651" lon="7.80468">
        <ele>139.7</ele>
        <time>2023-10-17T09:10:58Z</time>
      </trkpt>
      <trkpt lat="48.60653" lon="7.80497">
        <ele>138.1</ele>
        <time>2023-10-17T09:11:06Z</time>
      </trkpt>
      <trkpt lat="48.60663" lon="7.80524">
        <ele>137</ele>
        <time>2023-10-17T09:11:12Z</time>
      </trkpt>
      <trkpt lat="48.6067" lon="7.80551">
        <ele>136.8</ele>
        <time>2023-10-17T09:11:17Z</time>
      </trkpt>
      <trkpt lat="48.60679" lon="7.80576">
        <ele>136.8</ele>
        <time>2023-10-17T09:11:22Z</time>
      </trkpt>
      <trkpt lat="48.60691" lon="7.80603">
        <ele>136.9</ele>
        <time>2023-10-17T09:11:28Z</time>
      </trkpt>
      <trkpt lat="48.607" lon="7.8063">
        <ele>136.9</ele>
        <time>2023-10-17T09:11:34Z</time>
      </trkpt>
      <trkpt lat="48.607" lon="7.80658">
        <ele>136.9</ele>
        <time>2023-10-17T09:11:40Z</time>
      </trkpt>
      <trkpt lat="48.60697" lon="7.80687">
        <ele>136.9</ele>
        <time>2023-10-17T09:11:46Z</time>
      </trkpt>
      <trkpt lat="48.60699" lon="7.80715">
        <ele>136.9</ele>
        <time>2023-10-17T09:11:52Z</time>
      </trkpt>
      <trkpt lat="48.60704" lon="7.80747">
        <ele>136.9</ele>
        <time>2023-10-17T09:11:58Z</time>
      </trkpt>
      <trkpt lat="48.60712" lon="7.80775">
        <ele>136.9</ele>
        <time>2023-10-17T09:12:04Z</time>
      </trkpt>
      <trkpt lat="48.60719" lon="7.80805">
        <ele>136.8</ele>
        <time>2023-10-17T09:12:11Z</time>
      </trkpt>
      <trkpt lat="48.60728" lon="7.80832">
        <ele>136.9</ele>
        <time>2023-10-17T09:12:18Z</time>
      </trkpt>
      <trkpt lat="48.60733" lon="7.80861">
        <ele>136.9</ele>
        <time>2023-10-17T09:12:24Z</time>
      </trkpt>
      <trkpt lat="48.6073" lon="7.80888">
        <ele>136.9</ele>
        <time>2023-10-17T09:12:31Z</time>
      </trkpt>
      <trkpt lat="48.60723" lon="7.80901">
        <ele>136.8</ele>
        <time>2023-10-17T09:12:35Z</time>
      </trkpt>
      <trkpt lat="48.60723" lon="7.8093">
        <ele>136.5</ele>
        <time>2023-10-17T09:12:42Z</time>
      </trkpt>
      <trkpt lat="48.60733" lon="7.80954">
        <ele>136.5</ele>
        <time>2023-10-17T09:12:50Z</time>
      </trkpt>
      <trkpt lat="48.6073" lon="7.80954">
        <ele>136.5</ele>
        <time>2023-10-17T09:12:52Z</time>
      </trkpt>
      <trkpt lat="48.60724" lon="7.80957">
        <ele>136.6</ele>
        <time>2023-10-17T09:12:56Z</time>
      </trkpt>
      <trkpt lat="48.60718" lon="7.80971">
        <ele>137.6</ele>
        <time>2023-10-17T09:13:01Z</time>
      </trkpt>
      <trkpt lat="48.60703" lon="7.80969">
        <ele>137.7</ele>
        <time>2023-10-17T09:13:10Z</time>
      </trkpt>
      <trkpt lat="48.60691" lon="7.80944">
        <ele>136.2</ele>
        <time>2023-10-17T09:13:18Z</time>
      </trkpt>
      <trkpt lat="48.60686" lon="7.80917">
        <ele>135.8</ele>
        <time>2023-10-17T09:13:25Z</time>
      </trkpt>
      <trkpt lat="48.60681" lon="7.8089">
        <ele>135.7</ele>
        <time>2023-10-17T09:13:32Z</time>
      </trkpt>
      <trkpt lat="48.60678" lon="7.80862">
        <ele>135.9</ele>
        <time>2023-10-17T09:13:38Z</time>
      </trkpt>
      <trkpt lat="48.60673" lon="7.80852">
        <ele>136</ele>
        <time>2023-10-17T09:13:42Z</time>
      </trkpt>
      <trkpt lat="48.60659" lon="7.80874">
        <ele>136.6</ele>
        <time>2023-10-17T09:13:50Z</time>
      </trkpt>
      <trkpt lat="48.60651" lon="7.80886">
        <ele>136.8</ele>
        <time>2023-10-17T09:13:55Z</time>
      </trkpt>
      <trkpt lat="48.60636" lon="7.80902">
        <ele>136.7</ele>
        <time>2023-10-17T09:14:02Z</time>
      </trkpt>
      <trkpt lat="48.60621" lon="7.80921">
        <ele>136.6</ele>
        <time>2023-10-17T09:14:08Z</time>
      </trkpt>
      <trkpt lat="48.60611" lon="7.80948">
        <ele>136.5</ele>
        <time>2023-10-17T09:14:14Z</time>
      </trkpt>
      <trkpt lat="48.60609" lon="7.80975">
        <ele>136.6</ele>
        <time>2023-10-17T09:14:20Z</time>
      </trkpt>
      <trkpt lat="48.60604" lon="7.81001">
        <ele>136.6</ele>
        <time>2023-10-17T09:14:27Z</time>
      </trkpt>
      <trkpt lat="48.60589" lon="7.80986">
        <ele>136.6</ele>
        <time>2023-10-17T09:14:34Z</time>
      </trkpt>
      <trkpt lat="48.60577" lon="7.80968">
        <ele>136.6</ele>
        <time>2023-10-17T09:14:41Z</time>
      </trkpt>
      <trkpt lat="48.60566" lon="7.80947">
        <ele>136.8</ele>
        <time>2023-10-17T09:14:48Z</time>
      </trkpt>
      <trkpt lat="48.60551" lon="7.80931">
        <ele>137.8</ele>
        <time>2023-10-17T09:14:55Z</time>
      </trkpt>
      <trkpt lat="48.6054" lon="7.80922">
        <ele>139.1</ele>
        <time>2023-10-17T09:15:00Z</time>
      </trkpt>
      <trkpt lat="48.60536" lon="7.80925">
        <ele>139.6</ele>
        <time>2023-10-17T09:15:02Z</time>
      </trkpt>
      <trkpt lat="48.60534" lon="7.80924">
        <ele>139.9</ele>
        <time>2023-10-17T09:15:06Z</time>
      </trkpt>
      <trkpt lat="48.60521" lon="7.809">
        <ele>140</ele>
        <time>2023-10-17T09:15:15Z</time>
      </trkpt>
      <trkpt lat="48.60509" lon="7.80877">
        <ele>140</ele>
        <time>2023-10-17T09:15:21Z</time>
      </trkpt>
      <trkpt lat="48.60497" lon="7.80852">
        <ele>139.9</ele>
        <time>2023-10-17T09:15:29Z</time>
      </trkpt>
      <trkpt lat="48.60483" lon="7.80832">
        <ele>139.8</ele>
        <time>2023-10-17T09:15:35Z</time>
      </trkpt>
      <trkpt lat="48.60469" lon="7.80817">
        <ele>139.8</ele>
        <time>2023-10-17T09:15:42Z</time>
      </trkpt>
      <trkpt lat="48.60456" lon="7.80831">
        <ele>139</ele>
        <time>2023-10-17T09:15:47Z</time>
      </trkpt>
      <trkpt lat="48.60455" lon="7.80863">
        <ele>137.7</ele>
        <time>2023-10-17T09:15:55Z</time>
      </trkpt>
      <trkpt lat="48.60455" lon="7.80891">
        <ele>137.5</ele>
        <time>2023-10-17T09:16:01Z</time>
      </trkpt>
      <trkpt lat="48.60459" lon="7.80898">
        <ele>137.5</ele>
        <time>2023-10-17T09:16:03Z</time>
      </trkpt>
      <trkpt lat="48.60468" lon="7.80919">
        <ele>137.6</ele>
        <time>2023-10-17T09:16:09Z</time>
      </trkpt>
      <trkpt lat="48.60465" lon="7.80947">
        <ele>137.7</ele>
        <time>2023-10-17T09:16:16Z</time>
      </trkpt>
      <trkpt lat="48.6046" lon="7.80975">
        <ele>137.7</ele>
        <time>2023-10-17T09:16:23Z</time>
      </trkpt>
      <trkpt lat="48.60456" lon="7.80999">
        <ele>137.6</ele>
        <time>2023-10-17T09:16:31Z</time>
      </trkpt>
      <trkpt lat="48.6047" lon="7.81019">
        <ele>137.5</ele>
        <time>2023-10-17T09:16:38Z</time>
      </trkpt>
      <trkpt lat="48.60475" lon="7.81045">
        <ele>137.6</ele>
        <time>2023-10-17T09:16:44Z</time>
      </trkpt>
      <trkpt lat="48.60466" lon="7.81069">
        <ele>137.8</ele>
        <time>2023-10-17T09:16:54Z</time>
      </trkpt>
      <trkpt lat="48.60459" lon="7.81095">
        <ele>138.1</ele>
        <time>2023-10-17T09:17:00Z</time>
      </trkpt>
      <trkpt lat="48.60461" lon="7.81122">
        <ele>138.3</ele>
        <time>2023-10-17T09:17:06Z</time>
      </trkpt>
      <trkpt lat="48.60471" lon="7.81146">
        <ele>138.4</ele>
        <time>2023-10-17T09:17:13Z</time>
      </trkpt>
      <trkpt lat="48.60482" lon="7.81171">
        <ele>138.3</ele>
        <time>2023-10-17T09:17:20Z</time>
      </trkpt>
      <trkpt lat="48.60494" lon="7.81192">
        <ele>138.3</ele>
        <time>2023-10-17T09:17:26Z</time>
      </trkpt>
      <trkpt lat="48.60507" lon="7.81214">
        <ele>138.2</ele>
        <time>2023-10-17T09:17:32Z</time>
      </trkpt>
      <trkpt lat="48.6052" lon="7.81237">
        <ele>138.1</ele>
        <time>2023-10-17T09:17:38Z</time>
      </trkpt>
      <trkpt lat="48.60535" lon="7.81254">
        <ele>137.9</ele>
        <time>2023-10-17T09:17:44Z</time>
      </trkpt>
      <trkpt lat="48.60548" lon="7.81275">
        <ele>137.8</ele>
        <time>2023-10-17T09:17:50Z</time>
      </trkpt>
      <trkpt lat="48.60559" lon="7.81299">
        <ele>137.9</ele>
        <time>2023-10-17T09:17:56Z</time>
      </trkpt>
      <trkpt lat="48.60569" lon="7.81325">
        <ele>138</ele>
        <time>2023-10-17T09:18:02Z</time>
      </trkpt>
      <trkpt lat="48.60581" lon="7.81346">
        <ele>138</ele>
        <time>2023-10-17T09:18:08Z</time>
      </trkpt>
      <trkpt lat="48.60591" lon="7.81371">
        <ele>137.9</ele>
        <time>2023-10-17T09:18:14Z</time>
      </trkpt>
      <trkpt lat="48.60609" lon="7.8138">
        <ele>137.6</ele>
        <time>2023-10-17T09:18:21Z</time>
      </trkpt>
      <trkpt lat="48.60628" lon="7.81385">
        <ele>137.3</ele>
        <time>2023-10-17T09:18:28Z</time>
      </trkpt>
      <trkpt lat="48.60649" lon="7.81391">
        <ele>137.4</ele>
        <time>2023-10-17T09:18:35Z</time>
      </trkpt>
      <trkpt lat="48.60663" lon="7.81396">
        <ele>137.7</ele>
        <time>2023-10-17T09:18:40Z</time>
      </trkpt>
      <trkpt lat="48.60673" lon="7.81419">
        <ele>138.1</ele>
        <time>2023-10-17T09:18:49Z</time>
      </trkpt>
      <trkpt lat="48.60677" lon="7.81423">
        <ele>137.8</ele>
        <time>2023-10-17T09:18:51Z</time>
      </trkpt>
      <trkpt lat="48.60686" lon="7.81431">
        <ele>137.4</ele>
        <time>2023-10-17T09:19:22Z</time>
      </trkpt>
      <trkpt lat="48.60687" lon="7.81437">
        <ele>137.3</ele>
        <time>2023-10-17T09:19:24Z</time>
      </trkpt>
      <trkpt lat="48.60694" lon="7.81454">
        <ele>137.1</ele>
        <time>2023-10-17T09:19:30Z</time>
      </trkpt>
      <trkpt lat="48.60706" lon="7.81475">
        <ele>137.1</ele>
        <time>2023-10-17T09:19:37Z</time>
      </trkpt>
      <trkpt lat="48.60715" lon="7.815">
        <ele>137</ele>
        <time>2023-10-17T09:19:48Z</time>
      </trkpt>
      <trkpt lat="48.60731" lon="7.81515">
        <ele>136.8</ele>
        <time>2023-10-17T09:19:56Z</time>
      </trkpt>
      <trkpt lat="48.60746" lon="7.81535">
        <ele>136.8</ele>
        <time>2023-10-17T09:20:03Z</time>
      </trkpt>
      <trkpt lat="48.60762" lon="7.81549">
        <ele>136.8</ele>
        <time>2023-10-17T09:20:11Z</time>
      </trkpt>
      <trkpt lat="48.60772" lon="7.81575">
        <ele>136.7</ele>
        <time>2023-10-17T09:20:17Z</time>
      </trkpt>
      <trkpt lat="48.60775" lon="7.81586">
        <ele>136.8</ele>
        <time>2023-10-17T09:20:21Z</time>
      </trkpt>
      <trkpt lat="48.60781" lon="7.81587">
        <ele>136.9</ele>
        <time>2023-10-17T09:20:23Z</time>
      </trkpt>
      <trkpt lat="48.60799" lon="7.81579">
        <ele>137</ele>
        <time>2023-10-17T09:20:29Z</time>
      </trkpt>
      <trkpt lat="48.60817" lon="7.81568">
        <ele>136.6</ele>
        <time>2023-10-17T09:20:36Z</time>
      </trkpt>
      <trkpt lat="48.60837" lon="7.81563">
        <ele>136.3</ele>
        <time>2023-10-17T09:20:43Z</time>
      </trkpt>
      <trkpt lat="48.60856" lon="7.8157">
        <ele>136.2</ele>
        <time>2023-10-17T09:20:50Z</time>
      </trkpt>
      <trkpt lat="48.60875" lon="7.81571">
        <ele>136.2</ele>
        <time>2023-10-17T09:20:59Z</time>
      </trkpt>
      <trkpt lat="48.60895" lon="7.81572">
        <ele>136.3</ele>
        <time>2023-10-17T09:21:07Z</time>
      </trkpt>
      <trkpt lat="48.60912" lon="7.81565">
        <ele>136.3</ele>
        <time>2023-10-17T09:21:14Z</time>
      </trkpt>
      <trkpt lat="48.60929" lon="7.81575">
        <ele>136.3</ele>
        <time>2023-10-17T09:21:21Z</time>
      </trkpt>
      <trkpt lat="48.60937" lon="7.81595">
        <ele>136.3</ele>
        <time>2023-10-17T09:21:27Z</time>
      </trkpt>
      <trkpt lat="48.60952" lon="7.8161">
        <ele>136.3</ele>
        <time>2023-10-17T09:21:33Z</time>
      </trkpt>
      <trkpt lat="48.60971" lon="7.81621">
        <ele>136.8</ele>
        <time>2023-10-17T09:21:40Z</time>
      </trkpt>
      <trkpt lat="48.60989" lon="7.8163">
        <ele>136.9</ele>
        <time>2023-10-17T09:21:47Z</time>
      </trkpt>
      <trkpt lat="48.61006" lon="7.81638">
        <ele>136.7</ele>
        <time>2023-10-17T09:21:53Z</time>
      </trkpt>
      <trkpt lat="48.61024" lon="7.81647">
        <ele>136.4</ele>
        <time>2023-10-17T09:21:58Z</time>
      </trkpt>
      <trkpt lat="48.6104" lon="7.81661">
        <ele>136.2</ele>
        <time>2023-10-17T09:22:03Z</time>
      </trkpt>
      <trkpt lat="48.61056" lon="7.81679">
        <ele>136.3</ele>
        <time>2023-10-17T09:22:09Z</time>
      </trkpt>
      <trkpt lat="48.61069" lon="7.81699">
        <ele>136.6</ele>
        <time>2023-10-17T09:22:15Z</time>
      </trkpt>
      <trkpt lat="48.61074" lon="7.817">
        <ele>136.6</ele>
        <time>2023-10-17T09:22:17Z</time>
      </trkpt>
      <trkpt lat="48.61091" lon="7.81686">
        <ele>136.5</ele>
        <time>2023-10-17T09:22:24Z</time>
      </trkpt>
      <trkpt lat="48.61108" lon="7.81669">
        <ele>136.4</ele>
        <time>2023-10-17T09:22:31Z</time>
      </trkpt>
      <trkpt lat="48.61125" lon="7.81654">
        <ele>136.4</ele>
        <time>2023-10-17T09:22:39Z</time>
      </trkpt>
      <trkpt lat="48.61141" lon="7.81639">
        <ele>136.6</ele>
        <time>2023-10-17T09:22:46Z</time>
      </trkpt>
      <trkpt lat="48.61158" lon="7.81625">
        <ele>137.2</ele>
        <time>2023-10-17T09:22:53Z</time>
      </trkpt>
      <trkpt lat="48.61174" lon="7.8161">
        <ele>137.8</ele>
        <time>2023-10-17T09:22:59Z</time>
      </trkpt>
      <trkpt lat="48.6119" lon="7.81594">
        <ele>138</ele>
        <time>2023-10-17T09:23:05Z</time>
      </trkpt>
      <trkpt lat="48.61206" lon="7.81574">
        <ele>138.2</ele>
        <time>2023-10-17T09:23:12Z</time>
      </trkpt>
      <trkpt lat="48.61221" lon="7.81558">
        <ele>138.4</ele>
        <time>2023-10-17T09:23:17Z</time>
      </trkpt>
      <trkpt lat="48.6124" lon="7.81555">
        <ele>139.5</ele>
        <time>2023-10-17T09:23:24Z</time>
      </trkpt>
      <trkpt lat="48.6125" lon="7.81579">
        <ele>139.6</ele>
        <time>2023-10-17T09:23:31Z</time>
      </trkpt>
      <trkpt lat="48.61258" lon="7.81608">
        <ele>139.6</ele>
        <time>2023-10-17T09:23:38Z</time>
      </trkpt>
      <trkpt lat="48.61263" lon="7.81633">
        <ele>139.5</ele>
        <time>2023-10-17T09:23:44Z</time>
      </trkpt>
      <trkpt lat="48.61272" lon="7.81657">
        <ele>139.5</ele>
        <time>2023-10-17T09:23:50Z</time>
      </trkpt>
      <trkpt lat="48.61283" lon="7.8168">
        <ele>139.5</ele>
        <time>2023-10-17T09:23:56Z</time>
      </trkpt>
      <trkpt lat="48.61287" lon="7.81711">
        <ele>139.5</ele>
        <time>2023-10-17T09:24:02Z</time>
      </trkpt>
      <trkpt lat="48.61287" lon="7.8174">
        <ele>139.6</ele>
        <time>2023-10-17T09:24:07Z</time>
      </trkpt>
      <trkpt lat="48.61287" lon="7.81768">
        <ele>139.6</ele>
        <time>2023-10-17T09:24:12Z</time>
      </trkpt>
      <trkpt lat="48.61287" lon="7.81796">
        <ele>139.7</ele>
        <time>2023-10-17T09:24:17Z</time>
      </trkpt>
      <trkpt lat="48.61287" lon="7.81827">
        <ele>139.7</ele>
        <time>2023-10-17T09:24:23Z</time>
      </trkpt>
      <trkpt lat="48.61292" lon="7.81857">
        <ele>139.7</ele>
        <time>2023-10-17T09:24:29Z</time>
      </trkpt>
      <trkpt lat="48.61302" lon="7.81883">
        <ele>139.6</ele>
        <time>2023-10-17T09:24:35Z</time>
      </trkpt>
      <trkpt lat="48.61314" lon="7.81908">
        <ele>139.6</ele>
        <time>2023-10-17T09:24:42Z</time>
      </trkpt>
      <trkpt lat="48.61331" lon="7.81928">
        <ele>139.6</ele>
        <time>2023-10-17T09:24:48Z</time>
      </trkpt>
      <trkpt lat="48.61338" lon="7.81934">
        <ele>139.5</ele>
        <time>2023-10-17T09:24:51Z</time>
      </trkpt>
      <trkpt lat="48.61356" lon="7.81921">
        <ele>138.6</ele>
        <time>2023-10-17T09:24:58Z</time>
      </trkpt>
      <trkpt lat="48.61372" lon="7.81904">
        <ele>138.1</ele>
        <time>2023-10-17T09:25:04Z</time>
      </trkpt>
      <trkpt lat="48.6139" lon="7.81895">
        <ele>138.1</ele>
        <time>2023-10-17T09:25:12Z</time>
      </trkpt>
      <trkpt lat="48.61411" lon="7.81894">
        <ele>138.2</ele>
        <time>2023-10-17T09:25:19Z</time>
      </trkpt>
      <trkpt lat="48.61431" lon="7.819">
        <ele>138.1</ele>
        <time>2023-10-17T09:25:27Z</time>
      </trkpt>
      <trkpt lat="48.61449" lon="7.81914">
        <ele>138</ele>
        <time>2023-10-17T09:25:34Z</time>
      </trkpt>
      <trkpt lat="48.61468" lon="7.81918">
        <ele>137.9</ele>
        <time>2023-10-17T09:25:40Z</time>
      </trkpt>
      <trkpt lat="48.61489" lon="7.81922">
        <ele>137.9</ele>
        <time>2023-10-17T09:25:46Z</time>
      </trkpt>
      <trkpt lat="48.61508" lon="7.81923">
        <ele>138</ele>
        <time>2023-10-17T09:25:52Z</time>
      </trkpt>
      <trkpt lat="48.61526" lon="7.81919">
        <ele>138</ele>
        <time>2023-10-17T09:25:59Z</time>
      </trkpt>
      <trkpt lat="48.61545" lon="7.81915">
        <ele>138</ele>
        <time>2023-10-17T09:26:05Z</time>
      </trkpt>
      <trkpt lat="48.61564" lon="7.81909">
        <ele>138</ele>
        <time>2023-10-17T09:26:11Z</time>
      </trkpt>
      <trkpt lat="48.61583" lon="7.81907">
        <ele>138</ele>
        <time>2023-10-17T09:26:17Z</time>
      </trkpt>
      <trkpt lat="48.61601" lon="7.81905">
        <ele>138</ele>
        <time>2023-10-17T09:26:23Z</time>
      </trkpt>
      <trkpt lat="48.6162" lon="7.81907">
        <ele>138</ele>
        <time>2023-10-17T09:26:29Z</time>
      </trkpt>
      <trkpt lat="48.61641" lon="7.81908">
        <ele>138</ele>
        <time>2023-10-17T09:26:35Z</time>
      </trkpt>
      <trkpt lat="48.61662" lon="7.8191">
        <ele>137.9</ele>
        <time>2023-10-17T09:26:41Z</time>
      </trkpt>
      <trkpt lat="48.61682" lon="7.81914">
        <ele>137.7</ele>
        <time>2023-10-17T09:26:47Z</time>
      </trkpt>
      <trkpt lat="48.61702" lon="7.81917">
        <ele>137.6</ele>
        <time>2023-10-17T09:26:53Z</time>
      </trkpt>
      <trkpt lat="48.61721" lon="7.81916">
        <ele>137.6</ele>
        <time>2023-10-17T09:26:58Z</time>
      </trkpt>
      <trkpt lat="48.61739" lon="7.81916">
        <ele>137.6</ele>
        <time>2023-10-17T09:27:04Z</time>
      </trkpt>
      <trkpt lat="48.61758" lon="7.81918">
        <ele>137.8</ele>
        <time>2023-10-17T09:27:10Z</time>
      </trkpt>
      <trkpt lat="48.61776" lon="7.81923">
        <ele>137.7</ele>
        <time>2023-10-17T09:27:15Z</time>
      </trkpt>
      <trkpt lat="48.61794" lon="7.81922">
        <ele>137.9</ele>
        <time>2023-10-17T09:27:20Z</time>
      </trkpt>
      <trkpt lat="48.61811" lon="7.8191">
        <ele>137.9</ele>
        <time>2023-10-17T09:27:26Z</time>
      </trkpt>
      <trkpt lat="48.61826" lon="7.81887">
        <ele>137.6</ele>
        <time>2023-10-17T09:27:32Z</time>
      </trkpt>
      <trkpt lat="48.61835" lon="7.81862">
        <ele>137.7</ele>
        <time>2023-10-17T09:27:38Z</time>
      </trkpt>
      <trkpt lat="48.61831" lon="7.81834">
        <ele>137.8</ele>
        <time>2023-10-17T09:27:45Z</time>
      </trkpt>
      <trkpt lat="48.61825" lon="7.81804">
        <ele>137.8</ele>
        <time>2023-10-17T09:27:53Z</time>
      </trkpt>
      <trkpt lat="48.61817" lon="7.81775">
        <ele>137.9</ele>
        <time>2023-10-17T09:28:00Z</time>
      </trkpt>
      <trkpt lat="48.61811" lon="7.8175">
        <ele>138</ele>
        <time>2023-10-17T09:28:07Z</time>
      </trkpt>
      <trkpt lat="48.61805" lon="7.81722">
        <ele>138.1</ele>
        <time>2023-10-17T09:28:13Z</time>
      </trkpt>
      <trkpt lat="48.61793" lon="7.81698">
        <ele>137.9</ele>
        <time>2023-10-17T09:28:20Z</time>
      </trkpt>
      <trkpt lat="48.61788" lon="7.8167">
        <ele>137.6</ele>
        <time>2023-10-17T09:28:28Z</time>
      </trkpt>
      <trkpt lat="48.61788" lon="7.81642">
        <ele>137.6</ele>
        <time>2023-10-17T09:28:36Z</time>
      </trkpt>
      <trkpt lat="48.61787" lon="7.81611">
        <ele>137.6</ele>
        <time>2023-10-17T09:28:44Z</time>
      </trkpt>
      <trkpt lat="48.61788" lon="7.81581">
        <ele>137.7</ele>
        <time>2023-10-17T09:28:51Z</time>
      </trkpt>
      <trkpt lat="48.61798" lon="7.81557">
        <ele>137.4</ele>
        <time>2023-10-17T09:28:58Z</time>
      </trkpt>
      <trkpt lat="48.61815" lon="7.81549">
        <ele>137.5</ele>
        <time>2023-10-17T09:29:06Z</time>
      </trkpt>
      <trkpt lat="48.61835" lon="7.81549">
        <ele>137.5</ele>
        <time>2023-10-17T09:29:14Z</time>
      </trkpt>
      <trkpt lat="48.61854" lon="7.81548">
        <ele>137.5</ele>
        <time>2023-10-17T09:29:22Z</time>
      </trkpt>
      <trkpt lat="48.61874" lon="7.81546">
        <ele>137.4</ele>
        <time>2023-10-17T09:29:28Z</time>
      </trkpt>
      <trkpt lat="48.61893" lon="7.81549">
        <ele>137.4</ele>
        <time>2023-10-17T09:29:34Z</time>
      </trkpt>
      <trkpt lat="48.61911" lon="7.81554">
        <ele>137.4</ele>
        <time>2023-10-17T09:29:40Z</time>
      </trkpt>
      <trkpt lat="48.61928" lon="7.81562">
        <ele>137.5</ele>
        <time>2023-10-17T09:29:47Z</time>
      </trkpt>
      <trkpt lat="48.61946" lon="7.81578">
        <ele>137.6</ele>
        <time>2023-10-17T09:29:54Z</time>
      </trkpt>
      <trkpt lat="48.61961" lon="7.81594">
        <ele>137.6</ele>
        <time>2023-10-17T09:30:01Z</time>
      </trkpt>
      <trkpt lat="48.61979" lon="7.8161">
        <ele>137.6</ele>
        <time>2023-10-17T09:30:08Z</time>
      </trkpt>
      <trkpt lat="48.61996" lon="7.81621">
        <ele>137.4</ele>
        <time>2023-10-17T09:30:14Z</time>
      </trkpt>
      <trkpt lat="48.62015" lon="7.81635">
        <ele>137.4</ele>
        <time>2023-10-17T09:30:21Z</time>
      </trkpt>
      <trkpt lat="48.6203" lon="7.81649">
        <ele>137.5</ele>
        <time>2023-10-17T09:30:27Z</time>
      </trkpt>
      <trkpt lat="48.62049" lon="7.81649">
        <ele>137.7</ele>
        <time>2023-10-17T09:30:33Z</time>
      </trkpt>
      <trkpt lat="48.62067" lon="7.81658">
        <ele>137.7</ele>
        <time>2023-10-17T09:30:39Z</time>
      </trkpt>
      <trkpt lat="48.62071" lon="7.81688">
        <ele>137.7</ele>
        <time>2023-10-17T09:30:45Z</time>
      </trkpt>
      <trkpt lat="48.62069" lon="7.81715">
        <ele>137.7</ele>
        <time>2023-10-17T09:30:51Z</time>
      </trkpt>
      <trkpt lat="48.62069" lon="7.81726">
        <ele>137.7</ele>
        <time>2023-10-17T09:30:54Z</time>
      </trkpt>
      <trkpt lat="48.62077" lon="7.81745">
        <ele>137.7</ele>
        <time>2023-10-17T09:31:45Z</time>
      </trkpt>
      <trkpt lat="48.62074" lon="7.81759">
        <ele>137.7</ele>
        <time>2023-10-17T09:31:53Z</time>
      </trkpt>
      <trkpt lat="48.62079" lon="7.81728">
        <ele>137.7</ele>
        <time>2023-10-17T09:32:01Z</time>
      </trkpt>
      <trkpt lat="48.62082" lon="7.81697">
        <ele>137.7</ele>
        <time>2023-10-17T09:32:07Z</time>
      </trkpt>
      <trkpt lat="48.62091" lon="7.8167">
        <ele>137.7</ele>
        <time>2023-10-17T09:32:13Z</time>
      </trkpt>
      <trkpt lat="48.62103" lon="7.81659">
        <ele>137.6</ele>
        <time>2023-10-17T09:32:17Z</time>
      </trkpt>
      <trkpt lat="48.62122" lon="7.81662">
        <ele>137.4</ele>
        <time>2023-10-17T09:32:22Z</time>
      </trkpt>
      <trkpt lat="48.62141" lon="7.81674">
        <ele>137.3</ele>
        <time>2023-10-17T09:32:27Z</time>
      </trkpt>
      <trkpt lat="48.62158" lon="7.81693">
        <ele>137.2</ele>
        <time>2023-10-17T09:32:32Z</time>
      </trkpt>
      <trkpt lat="48.62173" lon="7.81711">
        <ele>137.1</ele>
        <time>2023-10-17T09:32:36Z</time>
      </trkpt>
      <trkpt lat="48.62186" lon="7.81731">
        <ele>137.1</ele>
        <time>2023-10-17T09:32:40Z</time>
      </trkpt>
      <trkpt lat="48.622" lon="7.81754">
        <ele>137.1</ele>
        <time>2023-10-17T09:32:45Z</time>
      </trkpt>
      <trkpt lat="48.62207" lon="7.81763">
        <ele>137.2</ele>
        <time>2023-10-17T09:32:47Z</time>
      </trkpt>
      <trkpt lat="48.62221" lon="7.81785">
        <ele>137.3</ele>
        <time>2023-10-17T09:32:52Z</time>
      </trkpt>
      <trkpt lat="48.62237" lon="7.81806">
        <ele>137.2</ele>
        <time>2023-10-17T09:32:59Z</time>
      </trkpt>
      <trkpt lat="48.62252" lon="7.81824">
        <ele>137.1</ele>
        <time>2023-10-17T09:33:05Z</time>
      </trkpt>
      <trkpt lat="48.62269" lon="7.81841">
        <ele>137</ele>
        <time>2023-10-17T09:33:12Z</time>
      </trkpt>
      <trkpt lat="48.62282" lon="7.81857">
        <ele>137</ele>
        <time>2023-10-17T09:33:17Z</time>
      </trkpt>
      <trkpt lat="48.62295" lon="7.81877">
        <ele>137</ele>
        <time>2023-10-17T09:33:22Z</time>
      </trkpt>
      <trkpt lat="48.62312" lon="7.81894">
        <ele>136.9</ele>
        <time>2023-10-17T09:33:28Z</time>
      </trkpt>
      <trkpt lat="48.62333" lon="7.81898">
        <ele>136.8</ele>
        <time>2023-10-17T09:33:34Z</time>
      </trkpt>
      <trkpt lat="48.62353" lon="7.8189">
        <ele>136.8</ele>
        <time>2023-10-17T09:33:39Z</time>
      </trkpt>
      <trkpt lat="48.62372" lon="7.81874">
        <ele>136.7</ele>
        <time>2023-10-17T09:33:44Z</time>
      </trkpt>
      <trkpt lat="48.62384" lon="7.81865">
        <ele>136.7</ele>
        <time>2023-10-17T09:33:47Z</time>
      </trkpt>
      <trkpt lat="48.62401" lon="7.81851">
        <ele>136.7</ele>
        <time>2023-10-17T09:33:52Z</time>
      </trkpt>
      <trkpt lat="48.62416" lon="7.81832">
        <ele>136.6</ele>
        <time>2023-10-17T09:33:59Z</time>
      </trkpt>
      <trkpt lat="48.62432" lon="7.81814">
        <ele>136.5</ele>
        <time>2023-10-17T09:34:06Z</time>
      </trkpt>
      <trkpt lat="48.62448" lon="7.818">
        <ele>136.5</ele>
        <time>2023-10-17T09:34:12Z</time>
      </trkpt>
      <trkpt lat="48.62461" lon="7.81785">
        <ele>136.5</ele>
        <time>2023-10-17T09:34:17Z</time>
      </trkpt>
      <trkpt lat="48.62476" lon="7.81766">
        <ele>136.6</ele>
        <time>2023-10-17T09:34:22Z</time>
      </trkpt>
      <trkpt lat="48.62494" lon="7.81747">
        <ele>136.5</ele>
        <time>2023-10-17T09:34:27Z</time>
      </trkpt>
      <trkpt lat="48.6251" lon="7.81729">
        <ele>136.4</ele>
        <time>2023-10-17T09:34:32Z</time>
      </trkpt>
      <trkpt lat="48.62523" lon="7.81707">
        <ele>136.7</ele>
        <time>2023-10-17T09:34:36Z</time>
      </trkpt>
      <trkpt lat="48.62524" lon="7.81676">
        <ele>137</ele>
        <time>2023-10-17T09:34:42Z</time>
      </trkpt>
      <trkpt lat="48.62523" lon="7.81671">
        <ele>137</ele>
        <time>2023-10-17T09:34:43Z</time>
      </trkpt>
      <trkpt lat="48.62519" lon="7.81661">
        <ele>137</ele>
        <time>2023-10-17T09:34:45Z</time>
      </trkpt>
      <trkpt lat="48.62517" lon="7.81649">
        <ele>137</ele>
        <time>2023-10-17T09:34:47Z</time>
      </trkpt>
      <trkpt lat="48.62509" lon="7.81624">
        <ele>137.1</ele>
        <time>2023-10-17T09:34:52Z</time>
      </trkpt>
      <trkpt lat="48.62508" lon="7.81605">
        <ele>137.3</ele>
        <time>2023-10-17T09:34:56Z</time>
      </trkpt>
      <trkpt lat="48.62524" lon="7.81594">
        <ele>137.2</ele>
        <time>2023-10-17T09:35:02Z</time>
      </trkpt>
      <trkpt lat="48.62543" lon="7.81586">
        <ele>137.1</ele>
        <time>2023-10-17T09:35:09Z</time>
      </trkpt>
      <trkpt lat="48.62562" lon="7.81584">
        <ele>137</ele>
        <time>2023-10-17T09:35:15Z</time>
      </trkpt>
      <trkpt lat="48.62568" lon="7.81582">
        <ele>137</ele>
        <time>2023-10-17T09:35:17Z</time>
      </trkpt>
      <trkpt lat="48.62587" lon="7.81577">
        <ele>136.9</ele>
        <time>2023-10-17T09:35:22Z</time>
      </trkpt>
      <trkpt lat="48.62605" lon="7.81573">
        <ele>137</ele>
        <time>2023-10-17T09:35:26Z</time>
      </trkpt>
      <trkpt lat="48.62624" lon="7.81567">
        <ele>137.1</ele>
        <time>2023-10-17T09:35:30Z</time>
      </trkpt>
      <trkpt lat="48.62629" lon="7.81558">
        <ele>137.1</ele>
        <time>2023-10-17T09:35:32Z</time>
      </trkpt>
      <trkpt lat="48.62632" lon="7.81531">
        <ele>137</ele>
        <time>2023-10-17T09:35:37Z</time>
      </trkpt>
      <trkpt lat="48.62631" lon="7.81501">
        <ele>137.1</ele>
        <time>2023-10-17T09:35:42Z</time>
      </trkpt>
      <trkpt lat="48.62634" lon="7.81467">
        <ele>137.1</ele>
        <time>2023-10-17T09:35:47Z</time>
      </trkpt>
      <trkpt lat="48.62637" lon="7.81435">
        <ele>137.1</ele>
        <time>2023-10-17T09:35:52Z</time>
      </trkpt>
      <trkpt lat="48.62642" lon="7.81409">
        <ele>137.1</ele>
        <time>2023-10-17T09:35:57Z</time>
      </trkpt>
      <trkpt lat="48.62649" lon="7.81381">
        <ele>137.3</ele>
        <time>2023-10-17T09:36:04Z</time>
      </trkpt>
      <trkpt lat="48.62658" lon="7.81355">
        <ele>137.5</ele>
        <time>2023-10-17T09:36:13Z</time>
      </trkpt>
      <trkpt lat="48.62666" lon="7.81343">
        <ele>137.5</ele>
        <time>2023-10-17T09:36:17Z</time>
      </trkpt>
      <trkpt lat="48.6268" lon="7.81324">
        <ele>137.4</ele>
        <time>2023-10-17T09:36:22Z</time>
      </trkpt>
      <trkpt lat="48.62693" lon="7.81301">
        <ele>137.4</ele>
        <time>2023-10-17T09:36:27Z</time>
      </trkpt>
      <trkpt lat="48.62703" lon="7.81274">
        <ele>137.4</ele>
        <time>2023-10-17T09:36:32Z</time>
      </trkpt>
      <trkpt lat="48.62711" lon="7.81249">
        <ele>137.5</ele>
        <time>2023-10-17T09:36:36Z</time>
      </trkpt>
      <trkpt lat="48.62721" lon="7.81223">
        <ele>137.6</ele>
        <time>2023-10-17T09:36:40Z</time>
      </trkpt>
      <trkpt lat="48.62727" lon="7.81194">
        <ele>137.9</ele>
        <time>2023-10-17T09:36:44Z</time>
      </trkpt>
      <trkpt lat="48.62731" lon="7.8117">
        <ele>137.4</ele>
        <time>2023-10-17T09:36:47Z</time>
      </trkpt>
      <trkpt lat="48.62737" lon="7.81139">
        <ele>137</ele>
        <time>2023-10-17T09:36:51Z</time>
      </trkpt>
      <trkpt lat="48.62744" lon="7.81132">
        <ele>137</ele>
        <time>2023-10-17T09:36:54Z</time>
      </trkpt>
      <trkpt lat="48.62762" lon="7.8112">
        <ele>136.6</ele>
        <time>2023-10-17T09:37:01Z</time>
      </trkpt>
      <trkpt lat="48.62766" lon="7.81091">
        <ele>136.6</ele>
        <time>2023-10-17T09:37:07Z</time>
      </trkpt>
      <trkpt lat="48.62773" lon="7.81061">
        <ele>136.6</ele>
        <time>2023-10-17T09:37:13Z</time>
      </trkpt>
      <trkpt lat="48.62774" lon="7.8104">
        <ele>136.6</ele>
        <time>2023-10-17T09:37:17Z</time>
      </trkpt>
      <trkpt lat="48.62778" lon="7.81008">
        <ele>136.6</ele>
        <time>2023-10-17T09:37:22Z</time>
      </trkpt>
      <trkpt lat="48.62782" lon="7.80976">
        <ele>136.5</ele>
        <time>2023-10-17T09:37:27Z</time>
      </trkpt>
      <trkpt lat="48.62783" lon="7.80946">
        <ele>136.4</ele>
        <time>2023-10-17T09:37:31Z</time>
      </trkpt>
      <trkpt lat="48.62784" lon="7.80915">
        <ele>136.2</ele>
        <time>2023-10-17T09:37:35Z</time>
      </trkpt>
      <trkpt lat="48.62784" lon="7.80884">
        <ele>136.2</ele>
        <time>2023-10-17T09:37:39Z</time>
      </trkpt>
      <trkpt lat="48.62785" lon="7.80854">
        <ele>136.2</ele>
        <time>2023-10-17T09:37:43Z</time>
      </trkpt>
      <trkpt lat="48.62786" lon="7.80824">
        <ele>136.3</ele>
        <time>2023-10-17T09:37:47Z</time>
      </trkpt>
      <trkpt lat="48.62779" lon="7.80806">
        <ele>136.4</ele>
        <time>2023-10-17T09:37:52Z</time>
      </trkpt>
      <trkpt lat="48.62761" lon="7.8081">
        <ele>136.3</ele>
        <time>2023-10-17T09:38:00Z</time>
      </trkpt>
      <trkpt lat="48.6275" lon="7.80815">
        <ele>136.4</ele>
        <time>2023-10-17T09:38:07Z</time>
      </trkpt>
      <trkpt lat="48.62732" lon="7.80825">
        <ele>136.4</ele>
        <time>2023-10-17T09:38:14Z</time>
      </trkpt>
      <trkpt lat="48.62726" lon="7.80826">
        <ele>136.5</ele>
        <time>2023-10-17T09:38:17Z</time>
      </trkpt>
      <trkpt lat="48.62706" lon="7.80828">
        <ele>136.6</ele>
        <time>2023-10-17T09:38:22Z</time>
      </trkpt>
      <trkpt lat="48.62684" lon="7.80832">
        <ele>136.9</ele>
        <time>2023-10-17T09:38:27Z</time>
      </trkpt>
      <trkpt lat="48.62665" lon="7.80851">
        <ele>137.1</ele>
        <time>2023-10-17T09:38:31Z</time>
      </trkpt>
      <trkpt lat="48.62649" lon="7.80872">
        <ele>137.2</ele>
        <time>2023-10-17T09:38:35Z</time>
      </trkpt>
      <trkpt lat="48.62638" lon="7.80899">
        <ele>137.4</ele>
        <time>2023-10-17T09:38:39Z</time>
      </trkpt>
      <trkpt lat="48.62633" lon="7.8093">
        <ele>137.5</ele>
        <time>2023-10-17T09:38:43Z</time>
      </trkpt>
      <trkpt lat="48.62631" lon="7.80963">
        <ele>137.6</ele>
        <time>2023-10-17T09:38:47Z</time>
      </trkpt>
      <trkpt lat="48.62626" lon="7.80992">
        <ele>137.7</ele>
        <time>2023-10-17T09:38:51Z</time>
      </trkpt>
      <trkpt lat="48.6262" lon="7.81021">
        <ele>137.6</ele>
        <time>2023-10-17T09:38:57Z</time>
      </trkpt>
      <trkpt lat="48.62613" lon="7.81049">
        <ele>137.5</ele>
        <time>2023-10-17T09:39:04Z</time>
      </trkpt>
      <trkpt lat="48.62603" lon="7.81074">
        <ele>137.6</ele>
        <time>2023-10-17T09:39:11Z</time>
      </trkpt>
      <trkpt lat="48.62588" lon="7.811">
        <ele>137.6</ele>
        <time>2023-10-17T09:39:17Z</time>
      </trkpt>
      <trkpt lat="48.62574" lon="7.81118">
        <ele>137.6</ele>
        <time>2023-10-17T09:39:22Z</time>
      </trkpt>
      <trkpt lat="48.62554" lon="7.81128">
        <ele>137.6</ele>
        <time>2023-10-17T09:39:28Z</time>
      </trkpt>
      <trkpt lat="48.62532" lon="7.81128">
        <ele>137.6</ele>
        <time>2023-10-17T09:39:33Z</time>
      </trkpt>
      <trkpt lat="48.62513" lon="7.81126">
        <ele>137.6</ele>
        <time>2023-10-17T09:39:37Z</time>
      </trkpt>
      <trkpt lat="48.62492" lon="7.81121">
        <ele>137.6</ele>
        <time>2023-10-17T09:39:41Z</time>
      </trkpt>
      <trkpt lat="48.62473" lon="7.81112">
        <ele>137.6</ele>
        <time>2023-10-17T09:39:45Z</time>
      </trkpt>
      <trkpt lat="48.62463" lon="7.81108">
        <ele>137.5</ele>
        <time>2023-10-17T09:39:47Z</time>
      </trkpt>
      <trkpt lat="48.62445" lon="7.81096">
        <ele>137.5</ele>
        <time>2023-10-17T09:39:51Z</time>
      </trkpt>
      <trkpt lat="48.62425" lon="7.81089">
        <ele>137.4</ele>
        <time>2023-10-17T09:39:56Z</time>
      </trkpt>
      <trkpt lat="48.62404" lon="7.81082">
        <ele>137.4</ele>
        <time>2023-10-17T09:40:02Z</time>
      </trkpt>
      <trkpt lat="48.62385" lon="7.81073">
        <ele>137.4</ele>
        <time>2023-10-17T09:40:08Z</time>
      </trkpt>
      <trkpt lat="48.62367" lon="7.81058">
        <ele>137.4</ele>
        <time>2023-10-17T09:40:14Z</time>
      </trkpt>
      <trkpt lat="48.62357" lon="7.81047">
        <ele>137.3</ele>
        <time>2023-10-17T09:40:17Z</time>
      </trkpt>
      <trkpt lat="48.62341" lon="7.81032">
        <ele>137.3</ele>
        <time>2023-10-17T09:40:22Z</time>
      </trkpt>
      <trkpt lat="48.62324" lon="7.81011">
        <ele>137.3</ele>
        <time>2023-10-17T09:40:27Z</time>
      </trkpt>
      <trkpt lat="48.6231" lon="7.80989">
        <ele>137.3</ele>
        <time>2023-10-17T09:40:31Z</time>
      </trkpt>
      <trkpt lat="48.62292" lon="7.80976">
        <ele>137.2</ele>
        <time>2023-10-17T09:40:36Z</time>
      </trkpt>
      <trkpt lat="48.62271" lon="7.80972">
        <ele>137.3</ele>
        <time>2023-10-17T09:40:41Z</time>
      </trkpt>
      <trkpt lat="48.62252" lon="7.80965">
        <ele>137.4</ele>
        <time>2023-10-17T09:40:45Z</time>
      </trkpt>
      <trkpt lat="48.62245" lon="7.80963">
        <ele>137.4</ele>
        <time>2023-10-17T09:40:47Z</time>
      </trkpt>
      <trkpt lat="48.62223" lon="7.8096">
        <ele>137.4</ele>
        <time>2023-10-17T09:40:52Z</time>
      </trkpt>
      <trkpt lat="48.62205" lon="7.80969">
        <ele>137.5</ele>
        <time>2023-10-17T09:40:58Z</time>
      </trkpt>
      <trkpt lat="48.62188" lon="7.80983">
        <ele>137.5</ele>
        <time>2023-10-17T09:41:06Z</time>
      </trkpt>
      <trkpt lat="48.62174" lon="7.81012">
        <ele>137.5</ele>
        <time>2023-10-17T09:41:15Z</time>
      </trkpt>
      <trkpt lat="48.62172" lon="7.81021">
        <ele>137.5</ele>
        <time>2023-10-17T09:41:17Z</time>
      </trkpt>
      <trkpt lat="48.62162" lon="7.81049">
        <ele>137.5</ele>
        <time>2023-10-17T09:41:22Z</time>
      </trkpt>
      <trkpt lat="48.62159" lon="7.81077">
        <ele>137.4</ele>
        <time>2023-10-17T09:41:26Z</time>
      </trkpt>
      <trkpt lat="48.62156" lon="7.81111">
        <ele>137.4</ele>
        <time>2023-10-17T09:41:31Z</time>
      </trkpt>
      <trkpt lat="48.62153" lon="7.81145">
        <ele>137.5</ele>
        <time>2023-10-17T09:41:35Z</time>
      </trkpt>
      <trkpt lat="48.62148" lon="7.81179">
        <ele>137.5</ele>
        <time>2023-10-17T09:41:39Z</time>
      </trkpt>
      <trkpt lat="48.62145" lon="7.81211">
        <ele>137.4</ele>
        <time>2023-10-17T09:41:43Z</time>
      </trkpt>
      <trkpt lat="48.62137" lon="7.81242">
        <ele>137.4</ele>
        <time>2023-10-17T09:41:47Z</time>
      </trkpt>
      <trkpt lat="48.62131" lon="7.81268">
        <ele>137.3</ele>
        <time>2023-10-17T09:41:51Z</time>
      </trkpt>
      <trkpt lat="48.62122" lon="7.81295">
        <ele>137.3</ele>
        <time>2023-10-17T09:41:57Z</time>
      </trkpt>
      <trkpt lat="48.62118" lon="7.81323">
        <ele>137.2</ele>
        <time>2023-10-17T09:42:06Z</time>
      </trkpt>
      <trkpt lat="48.62109" lon="7.81346">
        <ele>137.1</ele>
        <time>2023-10-17T09:42:12Z</time>
      </trkpt>
      <trkpt lat="48.621" lon="7.81367">
        <ele>137.1</ele>
        <time>2023-10-17T09:42:17Z</time>
      </trkpt>
      <trkpt lat="48.62094" lon="7.81395">
        <ele>137.2</ele>
        <time>2023-10-17T09:42:22Z</time>
      </trkpt>
      <trkpt lat="48.62084" lon="7.81426">
        <ele>137.2</ele>
        <time>2023-10-17T09:42:26Z</time>
      </trkpt>
      <trkpt lat="48.62072" lon="7.81455">
        <ele>137.3</ele>
        <time>2023-10-17T09:42:30Z</time>
      </trkpt>
      <trkpt lat="48.62058" lon="7.81485">
        <ele>137.2</ele>
        <time>2023-10-17T09:42:34Z</time>
      </trkpt>
      <trkpt lat="48.6205" lon="7.81513">
        <ele>137.2</ele>
        <time>2023-10-17T09:42:38Z</time>
      </trkpt>
      <trkpt lat="48.62049" lon="7.81546">
        <ele>137.5</ele>
        <time>2023-10-17T09:42:43Z</time>
      </trkpt>
      <trkpt lat="48.62054" lon="7.81564">
        <ele>137.6</ele>
        <time>2023-10-17T09:42:46Z</time>
      </trkpt>
      <trkpt lat="48.62057" lon="7.81571">
        <ele>137.6</ele>
        <time>2023-10-17T09:42:47Z</time>
      </trkpt>
      <trkpt lat="48.62062" lon="7.81594">
        <ele>137.7</ele>
        <time>2023-10-17T09:42:50Z</time>
      </trkpt>
      <trkpt lat="48.62063" lon="7.81607">
        <ele>137.7</ele>
        <time>2023-10-17T09:42:52Z</time>
      </trkpt>
      <trkpt lat="48.62059" lon="7.81637">
        <ele>137.7</ele>
        <time>2023-10-17T09:42:59Z</time>
      </trkpt>
      <trkpt lat="48.62055" lon="7.81644">
        <ele>137.7</ele>
        <time>2023-10-17T09:43:02Z</time>
      </trkpt>
      <trkpt lat="48.62052" lon="7.81642">
        <ele>137.7</ele>
        <time>2023-10-17T09:43:04Z</time>
      </trkpt>
      <trkpt lat="48.62034" lon="7.81631">
        <ele>137.5</ele>
        <time>2023-10-17T09:43:11Z</time>
      </trkpt>
      <trkpt lat="48.62016" lon="7.81622">
        <ele>137.4</ele>
        <time>2023-10-17T09:43:17Z</time>
      </trkpt>
      <trkpt lat="48.61998" lon="7.81607">
        <ele>137.4</ele>
        <time>2023-10-17T09:43:22Z</time>
      </trkpt>
      <trkpt lat="48.61982" lon="7.8159">
        <ele>137.6</ele>
        <time>2023-10-17T09:43:27Z</time>
      </trkpt>
      <trkpt lat="48.61971" lon="7.81562">
        <ele>137.6</ele>
        <time>2023-10-17T09:43:32Z</time>
      </trkpt>
      <trkpt lat="48.6197" lon="7.81535">
        <ele>137.7</ele>
        <time>2023-10-17T09:43:36Z</time>
      </trkpt>
      <trkpt lat="48.6197" lon="7.81502">
        <ele>137.6</ele>
        <time>2023-10-17T09:43:41Z</time>
      </trkpt>
      <trkpt lat="48.61968" lon="7.81473">
        <ele>137.6</ele>
        <time>2023-10-17T09:43:45Z</time>
      </trkpt>
      <trkpt lat="48.61966" lon="7.81458">
        <ele>137.5</ele>
        <time>2023-10-17T09:43:47Z</time>
      </trkpt>
      <trkpt lat="48.61965" lon="7.81429">
        <ele>137.5</ele>
        <time>2023-10-17T09:43:51Z</time>
      </trkpt>
      <trkpt lat="48.61964" lon="7.81401">
        <ele>137.6</ele>
        <time>2023-10-17T09:43:57Z</time>
      </trkpt>
      <trkpt lat="48.61963" lon="7.81371">
        <ele>137.5</ele>
        <time>2023-10-17T09:44:04Z</time>
      </trkpt>
      <trkpt lat="48.61959" lon="7.81343">
        <ele>137.5</ele>
        <time>2023-10-17T09:44:11Z</time>
      </trkpt>
      <trkpt lat="48.61957" lon="7.81314">
        <ele>137.5</ele>
        <time>2023-10-17T09:44:17Z</time>
      </trkpt>
      <trkpt lat="48.61954" lon="7.81283">
        <ele>137.4</ele>
        <time>2023-10-17T09:44:22Z</time>
      </trkpt>
      <trkpt lat="48.61952" lon="7.81255">
        <ele>137.4</ele>
        <time>2023-10-17T09:44:26Z</time>
      </trkpt>
      <trkpt lat="48.61952" lon="7.81223">
        <ele>137.5</ele>
        <time>2023-10-17T09:44:30Z</time>
      </trkpt>
      <trkpt lat="48.61952" lon="7.81194">
        <ele>137.5</ele>
        <time>2023-10-17T09:44:34Z</time>
      </trkpt>
      <trkpt lat="48.61951" lon="7.81166">
        <ele>137.5</ele>
        <time>2023-10-17T09:44:38Z</time>
      </trkpt>
      <trkpt lat="48.61951" lon="7.81131">
        <ele>137.5</ele>
        <time>2023-10-17T09:44:42Z</time>
      </trkpt>
      <trkpt lat="48.61951" lon="7.81098">
        <ele>137.5</ele>
        <time>2023-10-17T09:44:46Z</time>
      </trkpt>
      <trkpt lat="48.61952" lon="7.8109">
        <ele>137.5</ele>
        <time>2023-10-17T09:44:47Z</time>
      </trkpt>
      <trkpt lat="48.61952" lon="7.8106">
        <ele>137.5</ele>
        <time>2023-10-17T09:44:52Z</time>
      </trkpt>
      <trkpt lat="48.61956" lon="7.81032">
        <ele>137.6</ele>
        <time>2023-10-17T09:45:00Z</time>
      </trkpt>
      <trkpt lat="48.61959" lon="7.81004">
        <ele>137.5</ele>
        <time>2023-10-17T09:45:07Z</time>
      </trkpt>
      <trkpt lat="48.61956" lon="7.80972">
        <ele>137.5</ele>
        <time>2023-10-17T09:45:14Z</time>
      </trkpt>
      <trkpt lat="48.61954" lon="7.80957">
        <ele>137.4</ele>
        <time>2023-10-17T09:45:17Z</time>
      </trkpt>
      <trkpt lat="48.61954" lon="7.80925">
        <ele>137.4</ele>
        <time>2023-10-17T09:45:22Z</time>
      </trkpt>
      <trkpt lat="48.61952" lon="7.80893">
        <ele>137.4</ele>
        <time>2023-10-17T09:45:26Z</time>
      </trkpt>
      <trkpt lat="48.61954" lon="7.80864">
        <ele>137.4</ele>
        <time>2023-10-17T09:45:29Z</time>
      </trkpt>
      <trkpt lat="48.61958" lon="7.80835">
        <ele>137.3</ele>
        <time>2023-10-17T09:45:32Z</time>
      </trkpt>
      <trkpt lat="48.61967" lon="7.80804">
        <ele>137.2</ele>
        <time>2023-10-17T09:45:36Z</time>
      </trkpt>
      <trkpt lat="48.61978" lon="7.80778">
        <ele>137.1</ele>
        <time>2023-10-17T09:45:39Z</time>
      </trkpt>
      <trkpt lat="48.61978" lon="7.80749">
        <ele>137.1</ele>
        <time>2023-10-17T09:45:43Z</time>
      </trkpt>
      <trkpt lat="48.61965" lon="7.80728">
        <ele>137</ele>
        <time>2023-10-17T09:45:47Z</time>
      </trkpt>
      <trkpt lat="48.6195" lon="7.8071">
        <ele>137</ele>
        <time>2023-10-17T09:45:51Z</time>
      </trkpt>
      <trkpt lat="48.61935" lon="7.80693">
        <ele>137</ele>
        <time>2023-10-17T09:45:57Z</time>
      </trkpt>
      <trkpt lat="48.61918" lon="7.80678">
        <ele>137</ele>
        <time>2023-10-17T09:46:05Z</time>
      </trkpt>
      <trkpt lat="48.61901" lon="7.80666">
        <ele>137</ele>
        <time>2023-10-17T09:46:15Z</time>
      </trkpt>
      <trkpt lat="48.61897" lon="7.80664">
        <ele>137</ele>
        <time>2023-10-17T09:46:17Z</time>
      </trkpt>
      <trkpt lat="48.61877" lon="7.80653">
        <ele>137</ele>
        <time>2023-10-17T09:46:24Z</time>
      </trkpt>
      <trkpt lat="48.61856" lon="7.80643">
        <ele>137</ele>
        <time>2023-10-17T09:46:29Z</time>
      </trkpt>
      <trkpt lat="48.61835" lon="7.80636">
        <ele>137</ele>
        <time>2023-10-17T09:46:33Z</time>
      </trkpt>
      <trkpt lat="48.61816" lon="7.80632">
        <ele>136.9</ele>
        <time>2023-10-17T09:46:36Z</time>
      </trkpt>
      <trkpt lat="48.61795" lon="7.80631">
        <ele>136.8</ele>
        <time>2023-10-17T09:46:40Z</time>
      </trkpt>
      <trkpt lat="48.61781" lon="7.80651">
        <ele>136.8</ele>
        <time>2023-10-17T09:46:44Z</time>
      </trkpt>
      <trkpt lat="48.61772" lon="7.80677">
        <ele>136.7</ele>
        <time>2023-10-17T09:46:47Z</time>
      </trkpt>
      <trkpt lat="48.61768" lon="7.8071">
        <ele>136.7</ele>
        <time>2023-10-17T09:46:51Z</time>
      </trkpt>
      <trkpt lat="48.61763" lon="7.80723">
        <ele>136.7</ele>
        <time>2023-10-17T09:46:53Z</time>
      </trkpt>
      <trkpt lat="48.61752" lon="7.80747">
        <ele>136.9</ele>
        <time>2023-10-17T09:46:58Z</time>
      </trkpt>
      <trkpt lat="48.61741" lon="7.8077">
        <ele>137.1</ele>
        <time>2023-10-17T09:47:06Z</time>
      </trkpt>
      <trkpt lat="48.61736" lon="7.80798">
        <ele>137.3</ele>
        <time>2023-10-17T09:47:17Z</time>
      </trkpt>
      <trkpt lat="48.61731" lon="7.80826">
        <ele>137.3</ele>
        <time>2023-10-17T09:47:27Z</time>
      </trkpt>
      <trkpt lat="48.61727" lon="7.80854">
        <ele>137.4</ele>
        <time>2023-10-17T09:47:36Z</time>
      </trkpt>
      <trkpt lat="48.61723" lon="7.80882">
        <ele>137.5</ele>
        <time>2023-10-17T09:47:43Z</time>
      </trkpt>
      <trkpt lat="48.61714" lon="7.80907">
        <ele>137.4</ele>
        <time>2023-10-17T09:47:49Z</time>
      </trkpt>
      <trkpt lat="48.61713" lon="7.80909">
        <ele>137.4</ele>
        <time>2023-10-17T09:47:50Z</time>
      </trkpt>
      <trkpt lat="48.61694" lon="7.80911">
        <ele>137.4</ele>
        <time>2023-10-17T09:48:00Z</time>
      </trkpt>
      <trkpt lat="48.61675" lon="7.80908">
        <ele>137.4</ele>
        <time>2023-10-17T09:48:09Z</time>
      </trkpt>
      <trkpt lat="48.61657" lon="7.80909">
        <ele>137.3</ele>
        <time>2023-10-17T09:48:16Z</time>
      </trkpt>
      <trkpt lat="48.61638" lon="7.80906">
        <ele>137.3</ele>
        <time>2023-10-17T09:48:22Z</time>
      </trkpt>
      <trkpt lat="48.61619" lon="7.80895">
        <ele>137.2</ele>
        <time>2023-10-17T09:48:29Z</time>
      </trkpt>
      <trkpt lat="48.616" lon="7.80886">
        <ele>137.2</ele>
        <time>2023-10-17T09:48:36Z</time>
      </trkpt>
      <trkpt lat="48.61579" lon="7.80878">
        <ele>137.2</ele>
        <time>2023-10-17T09:48:44Z</time>
      </trkpt>
      <trkpt lat="48.6156" lon="7.80868">
        <ele>137.1</ele>
        <time>2023-10-17T09:48:51Z</time>
      </trkpt>
      <trkpt lat="48.61539" lon="7.80861">
        <ele>137</ele>
        <time>2023-10-17T09:48:57Z</time>
      </trkpt>
      <trkpt lat="48.61521" lon="7.80855">
        <ele>136.7</ele>
        <time>2023-10-17T09:49:02Z</time>
      </trkpt>
      <trkpt lat="48.61501" lon="7.80855">
        <ele>136.4</ele>
        <time>2023-10-17T09:49:07Z</time>
      </trkpt>
      <trkpt lat="48.61481" lon="7.80852">
        <ele>136.3</ele>
        <time>2023-10-17T09:49:13Z</time>
      </trkpt>
      <trkpt lat="48.61461" lon="7.80853">
        <ele>136.3</ele>
        <time>2023-10-17T09:49:20Z</time>
      </trkpt>
      <trkpt lat="48.6144" lon="7.80854">
        <ele>136.3</ele>
        <time>2023-10-17T09:49:27Z</time>
      </trkpt>
      <trkpt lat="48.61422" lon="7.80856">
        <ele>136.4</ele>
        <time>2023-10-17T09:49:32Z</time>
      </trkpt>
      <trkpt lat="48.61403" lon="7.80861">
        <ele>136.5</ele>
        <time>2023-10-17T09:49:38Z</time>
      </trkpt>
      <trkpt lat="48.61383" lon="7.80862">
        <ele>136.6</ele>
        <time>2023-10-17T09:49:44Z</time>
      </trkpt>
      <trkpt lat="48.61365" lon="7.80865">
        <ele>136.6</ele>
        <time>2023-10-17T09:49:50Z</time>
      </trkpt>
      <trkpt lat="48.61347" lon="7.80869">
        <ele>136.6</ele>
        <time>2023-10-17T09:49:57Z</time>
      </trkpt>
      <trkpt lat="48.6133" lon="7.80856">
        <ele>136.6</ele>
        <time>2023-10-17T09:50:03Z</time>
      </trkpt>
      <trkpt lat="48.61311" lon="7.80843">
        <ele>136.5</ele>
        <time>2023-10-17T09:50:09Z</time>
      </trkpt>
      <trkpt lat="48.61291" lon="7.80826">
        <ele>136.6</ele>
        <time>2023-10-17T09:50:15Z</time>
      </trkpt>
      <trkpt lat="48.61274" lon="7.80806">
        <ele>136.6</ele>
        <time>2023-10-17T09:50:21Z</time>
      </trkpt>
      <trkpt lat="48.61258" lon="7.8079">
        <ele>136.7</ele>
        <time>2023-10-17T09:50:26Z</time>
      </trkpt>
      <trkpt lat="48.6124" lon="7.80772">
        <ele>136.7</ele>
        <time>2023-10-17T09:50:32Z</time>
      </trkpt>
      <trkpt lat="48.61225" lon="7.80758">
        <ele>136.7</ele>
        <time>2023-10-17T09:50:37Z</time>
      </trkpt>
      <trkpt lat="48.61209" lon="7.80739">
        <ele>136.7</ele>
        <time>2023-10-17T09:50:44Z</time>
      </trkpt>
      <trkpt lat="48.61194" lon="7.80722">
        <ele>136.8</ele>
        <time>2023-10-17T09:50:50Z</time>
      </trkpt>
      <trkpt lat="48.61177" lon="7.80704">
        <ele>136.7</ele>
        <time>2023-10-17T09:50:55Z</time>
      </trkpt>
      <trkpt lat="48.61162" lon="7.80684">
        <ele>136.7</ele>
        <time>2023-10-17T09:51:00Z</time>
      </trkpt>
      <trkpt lat="48.61148" lon="7.80665">
        <ele>136.8</ele>
        <time>2023-10-17T09:51:05Z</time>
      </trkpt>
      <trkpt lat="48.61131" lon="7.80646">
        <ele>137</ele>
        <time>2023-10-17T09:51:11Z</time>
      </trkpt>
      <trkpt lat="48.61115" lon="7.80628">
        <ele>137.3</ele>
        <time>2023-10-17T09:51:18Z</time>
      </trkpt>
      <trkpt lat="48.61098" lon="7.8061">
        <ele>137.7</ele>
        <time>2023-10-17T09:51:25Z</time>
      </trkpt>
      <trkpt lat="48.61083" lon="7.80592">
        <ele>137.8</ele>
        <time>2023-10-17T09:51:30Z</time>
      </trkpt>
      <trkpt lat="48.61068" lon="7.80572">
        <ele>137.9</ele>
        <time>2023-10-17T09:51:35Z</time>
      </trkpt>
      <trkpt lat="48.61061" lon="7.80543">
        <ele>138</ele>
        <time>2023-10-17T09:51:41Z</time>
      </trkpt>
      <trkpt lat="48.61066" lon="7.80513">
        <ele>138</ele>
        <time>2023-10-17T09:51:47Z</time>
      </trkpt>
      <trkpt lat="48.61074" lon="7.80484">
        <ele>137.9</ele>
        <time>2023-10-17T09:51:52Z</time>
      </trkpt>
      <trkpt lat="48.61083" lon="7.80458">
        <ele>137.8</ele>
        <time>2023-10-17T09:51:57Z</time>
      </trkpt>
      <trkpt lat="48.61088" lon="7.8043">
        <ele>137.7</ele>
        <time>2023-10-17T09:52:02Z</time>
      </trkpt>
      <trkpt lat="48.61089" lon="7.80397">
        <ele>137.6</ele>
        <time>2023-10-17T09:52:08Z</time>
      </trkpt>
      <trkpt lat="48.61085" lon="7.80367">
        <ele>137.6</ele>
        <time>2023-10-17T09:52:14Z</time>
      </trkpt>
      <trkpt lat="48.61078" lon="7.80339">
        <ele>137.8</ele>
        <time>2023-10-17T09:52:20Z</time>
      </trkpt>
      <trkpt lat="48.61079" lon="7.80336">
        <ele>137.8</ele>
        <time>2023-10-17T09:52:21Z</time>
      </trkpt>
      <trkpt lat="48.6109" lon="7.80311">
        <ele>138</ele>
        <time>2023-10-17T09:52:28Z</time>
      </trkpt>
      <trkpt lat="48.61098" lon="7.80286">
        <ele>138.1</ele>
        <time>2023-10-17T09:52:34Z</time>
      </trkpt>
      <trkpt lat="48.61108" lon="7.8026">
        <ele>138.1</ele>
        <time>2023-10-17T09:52:40Z</time>
      </trkpt>
      <trkpt lat="48.61114" lon="7.8023">
        <ele>138.1</ele>
        <time>2023-10-17T09:52:46Z</time>
      </trkpt>
      <trkpt lat="48.61119" lon="7.80203">
        <ele>138</ele>
        <time>2023-10-17T09:52:52Z</time>
      </trkpt>
      <trkpt lat="48.61119" lon="7.80173">
        <ele>138</ele>
        <time>2023-10-17T09:52:58Z</time>
      </trkpt>
      <trkpt lat="48.61122" lon="7.80146">
        <ele>138</ele>
        <time>2023-10-17T09:53:04Z</time>
      </trkpt>
      <trkpt lat="48.61127" lon="7.80118">
        <ele>138</ele>
        <time>2023-10-17T09:53:11Z</time>
      </trkpt>
      <trkpt lat="48.61124" lon="7.80088">
        <ele>138</ele>
        <time>2023-10-17T09:53:18Z</time>
      </trkpt>
      <trkpt lat="48.6112" lon="7.80059">
        <ele>137.9</ele>
        <time>2023-10-17T09:53:25Z</time>
      </trkpt>
      <trkpt lat="48.61114" lon="7.80034">
        <ele>137.8</ele>
        <time>2023-10-17T09:53:31Z</time>
      </trkpt>
      <trkpt lat="48.61099" lon="7.80014">
        <ele>137.7</ele>
        <time>2023-10-17T09:53:36Z</time>
      </trkpt>
      <trkpt lat="48.61083" lon="7.79995">
        <ele>137.9</ele>
        <time>2023-10-17T09:53:42Z</time>
      </trkpt>
      <trkpt lat="48.61068" lon="7.79975">
        <ele>138</ele>
        <time>2023-10-17T09:53:47Z</time>
      </trkpt>
      <trkpt lat="48.6105" lon="7.79961">
        <ele>138</ele>
        <time>2023-10-17T09:53:54Z</time>
      </trkpt>
      <trkpt lat="48.61033" lon="7.79952">
        <ele>138</ele>
        <time>2023-10-17T09:54:01Z</time>
      </trkpt>
      <trkpt lat="48.61023" lon="7.79948">
        <ele>137.9</ele>
        <time>2023-10-17T09:54:07Z</time>
      </trkpt>
      <trkpt lat="48.61019" lon="7.7992">
        <ele>137.9</ele>
        <time>2023-10-17T09:54:17Z</time>
      </trkpt>
      <trkpt lat="48.61012" lon="7.7989">
        <ele>137.9</ele>
        <time>2023-10-17T09:54:26Z</time>
      </trkpt>
      <trkpt lat="48.61002" lon="7.79866">
        <ele>137.9</ele>
        <time>2023-10-17T09:54:32Z</time>
      </trkpt>
      <trkpt lat="48.60986" lon="7.79846">
        <ele>137.9</ele>
        <time>2023-10-17T09:54:37Z</time>
      </trkpt>
      <trkpt lat="48.60969" lon="7.7985">
        <ele>137.9</ele>
        <time>2023-10-17T09:54:44Z</time>
      </trkpt>
      <trkpt lat="48.60952" lon="7.79842">
        <ele>137.9</ele>
        <time>2023-10-17T09:54:50Z</time>
      </trkpt>
      <trkpt lat="48.60942" lon="7.79819">
        <ele>137.8</ele>
        <time>2023-10-17T09:54:56Z</time>
      </trkpt>
      <trkpt lat="48.60933" lon="7.79792">
        <ele>137.8</ele>
        <time>2023-10-17T09:55:03Z</time>
      </trkpt>
      <trkpt lat="48.60934" lon="7.79762">
        <ele>137.8</ele>
        <time>2023-10-17T09:55:09Z</time>
      </trkpt>
      <trkpt lat="48.6093" lon="7.79735">
        <ele>137.7</ele>
        <time>2023-10-17T09:55:15Z</time>
      </trkpt>
      <trkpt lat="48.60932" lon="7.79707">
        <ele>137.6</ele>
        <time>2023-10-17T09:55:21Z</time>
      </trkpt>
      <trkpt lat="48.60938" lon="7.7968">
        <ele>137.6</ele>
        <time>2023-10-17T09:55:27Z</time>
      </trkpt>
      <trkpt lat="48.60947" lon="7.79654">
        <ele>137.6</ele>
        <time>2023-10-17T09:55:33Z</time>
      </trkpt>
      <trkpt lat="48.6095" lon="7.79626">
        <ele>137.6</ele>
        <time>2023-10-17T09:55:39Z</time>
      </trkpt>
      <trkpt lat="48.60955" lon="7.79596">
        <ele>137.6</ele>
        <time>2023-10-17T09:55:45Z</time>
      </trkpt>
      <trkpt lat="48.6096" lon="7.79566">
        <ele>137.6</ele>
        <time>2023-10-17T09:55:51Z</time>
      </trkpt>
      <trkpt lat="48.60969" lon="7.7954">
        <ele>137.7</ele>
        <time>2023-10-17T09:55:57Z</time>
      </trkpt>
      <trkpt lat="48.60975" lon="7.79515">
        <ele>137.7</ele>
        <time>2023-10-17T09:56:07Z</time>
      </trkpt>
      <trkpt lat="48.60967" lon="7.79498">
        <ele>137.7</ele>
        <time>2023-10-17T09:56:13Z</time>
      </trkpt>
      <trkpt lat="48.60951" lon="7.79504">
        <ele>137.8</ele>
        <time>2023-10-17T09:56:20Z</time>
      </trkpt>
      <trkpt lat="48.60938" lon="7.79525">
        <ele>137.9</ele>
        <time>2023-10-17T09:56:27Z</time>
      </trkpt>
      <trkpt lat="48.60926" lon="7.7955">
        <ele>137.9</ele>
        <time>2023-10-17T09:56:34Z</time>
      </trkpt>
      <trkpt lat="48.60916" lon="7.79576">
        <ele>137.8</ele>
        <time>2023-10-17T09:56:42Z</time>
      </trkpt>
      <trkpt lat="48.60899" lon="7.79592">
        <ele>137.8</ele>
        <time>2023-10-17T09:56:48Z</time>
      </trkpt>
      <trkpt lat="48.60883" lon="7.79607">
        <ele>138</ele>
        <time>2023-10-17T09:56:54Z</time>
      </trkpt>
      <trkpt lat="48.6087" lon="7.7963">
        <ele>138</ele>
        <time>2023-10-17T09:57:01Z</time>
      </trkpt>
      <trkpt lat="48.60859" lon="7.79653">
        <ele>137.9</ele>
        <time>2023-10-17T09:57:07Z</time>
      </trkpt>
      <trkpt lat="48.60849" lon="7.7968">
        <ele>138</ele>
        <time>2023-10-17T09:57:14Z</time>
      </trkpt>
      <trkpt lat="48.60841" lon="7.79706">
        <ele>138.1</ele>
        <time>2023-10-17T09:57:20Z</time>
      </trkpt>
      <trkpt lat="48.60833" lon="7.79732">
        <ele>138</ele>
        <time>2023-10-17T09:57:27Z</time>
      </trkpt>
      <trkpt lat="48.60832" lon="7.7976">
        <ele>138</ele>
        <time>2023-10-17T09:57:34Z</time>
      </trkpt>
      <trkpt lat="48.60819" lon="7.79784">
        <ele>137.9</ele>
        <time>2023-10-17T09:57:39Z</time>
      </trkpt>
      <trkpt lat="48.60817" lon="7.79813">
        <ele>138.4</ele>
        <time>2023-10-17T09:57:45Z</time>
      </trkpt>
      <trkpt lat="48.60819" lon="7.7982">
        <ele>138.1</ele>
        <time>2023-10-17T09:57:47Z</time>
      </trkpt>
      <trkpt lat="48.60835" lon="7.79839">
        <ele>137.8</ele>
        <time>2023-10-17T09:57:55Z</time>
      </trkpt>
      <trkpt lat="48.6085" lon="7.7986">
        <ele>137.8</ele>
        <time>2023-10-17T09:58:02Z</time>
      </trkpt>
      <trkpt lat="48.6086" lon="7.79885">
        <ele>137.7</ele>
        <time>2023-10-17T09:58:08Z</time>
      </trkpt>
      <trkpt lat="48.60868" lon="7.79912">
        <ele>137.7</ele>
        <time>2023-10-17T09:58:14Z</time>
      </trkpt>
      <trkpt lat="48.60877" lon="7.79937">
        <ele>137.7</ele>
        <time>2023-10-17T09:58:20Z</time>
      </trkpt>
      <trkpt lat="48.60893" lon="7.79954">
        <ele>137.6</ele>
        <time>2023-10-17T09:58:27Z</time>
      </trkpt>
      <trkpt lat="48.60913" lon="7.79963">
        <ele>137.5</ele>
        <time>2023-10-17T09:58:34Z</time>
      </trkpt>
      <trkpt lat="48.6093" lon="7.79974">
        <ele>137.5</ele>
        <time>2023-10-17T09:58:40Z</time>
      </trkpt>
      <trkpt lat="48.60946" lon="7.79989">
        <ele>137.4</ele>
        <time>2023-10-17T09:58:49Z</time>
      </trkpt>
      <trkpt lat="48.6096" lon="7.80007">
        <ele>137.4</ele>
        <time>2023-10-17T09:58:56Z</time>
      </trkpt>
      <trkpt lat="48.60976" lon="7.80024">
        <ele>137.5</ele>
        <time>2023-10-17T09:59:02Z</time>
      </trkpt>
      <trkpt lat="48.60992" lon="7.80038">
        <ele>137.6</ele>
        <time>2023-10-17T09:59:10Z</time>
      </trkpt>
      <trkpt lat="48.61011" lon="7.80046">
        <ele>137.6</ele>
        <time>2023-10-17T09:59:17Z</time>
      </trkpt>
      <trkpt lat="48.61028" lon="7.80055">
        <ele>137.7</ele>
        <time>2023-10-17T09:59:23Z</time>
      </trkpt>
      <trkpt lat="48.6105" lon="7.80061">
        <ele>137.8</ele>
        <time>2023-10-17T09:59:30Z</time>
      </trkpt>
      <trkpt lat="48.61068" lon="7.80069">
        <ele>137.8</ele>
        <time>2023-10-17T09:59:36Z</time>
      </trkpt>
      <trkpt lat="48.61087" lon="7.80069">
        <ele>137.8</ele>
        <time>2023-10-17T09:59:42Z</time>
      </trkpt>
      <trkpt lat="48.61106" lon="7.80066">
        <ele>137.9</ele>
        <time>2023-10-17T09:59:49Z</time>
      </trkpt>
      <trkpt lat="48.61126" lon="7.80065">
        <ele>138.1</ele>
        <time>2023-10-17T09:59:56Z</time>
      </trkpt>
      <trkpt lat="48.61145" lon="7.80061">
        <ele>138.1</ele>
        <time>2023-10-17T10:00:03Z</time>
      </trkpt>
      <trkpt lat="48.61163" lon="7.80056">
        <ele>138.1</ele>
        <time>2023-10-17T10:00:10Z</time>
      </trkpt>
      <trkpt lat="48.6118" lon="7.80051">
        <ele>138.1</ele>
        <time>2023-10-17T10:00:17Z</time>
      </trkpt>
      <trkpt lat="48.61196" lon="7.80049">
        <ele>138</ele>
        <time>2023-10-17T10:00:24Z</time>
      </trkpt>
    </trkseg>
  </trk>
</gpx>